Nearby METAR Reports

 

KSJC - San Jose, California, USA
Distance from station: NE 9mi, 14km
Updated: 04,02/2020 7:53am
Clear
Clear
 Wind from calm
Wind: Calm
Temperature: 45°F , 7°C
Dew Point: 36°F , 2°C
Humidity: 71%
Barometer: 30.05 inHg , 1017.6 hPa
Clouds: Clear
Visibility: 10 miles , 16 km
2020/04/02 11:53 KSJC 021153Z AUTO 00000KT 10SM CLR 07/02 A3005 RMK AO2 SLP175 T00670022 10106 20061 51006
KNUQ - Moffett Nas/Mtn, California, USA
Distance from station: N 9mi, 14km
Updated: 11,21/2019 11:56am
NOT Current

 
Barometer: 29.86 inHg , 1011.2 hPa
2019/11/21 16:56 KNUQ 211656Z AUTO A2986 RMK AO2 SLP116 PWINO $
KPAO - Palo Alto, California, USA
Distance from station: NNW 14mi, 23km
Updated: 04,02/2020 12:47am
NOT Current
Clear
Clear
 Wind from W
Wind: W 9 mph , 15 km/h
Temperature: 52°F , 11°C
Dew Point: 39°F , 4°C
Humidity: 62%
Barometer: 30.00 inHg , 1015.9 hPa
Clouds: Clear
Visibility: 10 miles , 16 km
2020/04/02 04:47 KPAO 020447Z 27008KT 10SM SKC 11/04 A3000 RMK LAST
 
KRHV - San Jose/Reid, California, USA
Distance from station: ENE 12mi, 19km
Updated: 04,02/2020 12:47am
NOT Current
Clear
Clear
 Wind from N
Wind: N 3 mph , 6 km/h
Temperature: 52°F , 11°C
Dew Point: 39°F , 4°C
Humidity: 62%
Barometer: 30.01 inHg , 1016.3 hPa
Clouds: Clear
Visibility: 10 miles , 16 km
2020/04/02 04:47 KRHV 020447Z 01003KT 10SM SKC 11/04 A3001 RMK LAST
KOAK - Oakland, California, USA
Distance from station: NNW 31mi, 50km
Updated: 04,02/2020 7:53am
Clear
Clear
 Wind from N
Wind: N 3 mph , 6 km/h
Temperature: 46°F , 8°C
Dew Point: 37°F , 3°C
Humidity: 71%
Barometer: 30.06 inHg , 1017.9 hPa
Clouds: Clear
Visibility: 10 miles , 16 km
2020/04/02 11:53 KOAK 021153Z 01003KT 10SM CLR 08/03 A3006 RMK AO2 SLP178 T00830033 10122 20072 53006
KSQL - San Carlos Airpo, California, USA
Distance from station: NW 21mi, 34km
Updated: 04,02/2020 8:35am
Clear
Clear
 Wind from calm
Wind: Calm
Temperature: 45°F , 7°C
Dew Point: 39°F , 4°C
Humidity: 81%
Barometer: 30.07 inHg , 1018.3 hPa
Clouds: Clear
Visibility: 10 miles , 16 km
2020/04/02 12:35 KSQL 021235Z AUTO 00000KT 10SM CLR 07/04 A3007 RMK AO2
 
KSFO - San Francisco, California, USA
Distance from station: NW 30mi, 49km
Updated: 04,02/2020 7:56am
Few Clouds
Few Clouds
 Wind from W
Wind: W 5 mph , 7 km/h
Temperature: 46°F , 8°C
Wind Chill: 44°F , 7°C
Dew Point: 39°F , 4°C
Humidity: 76%
Barometer: 30.05 inHg , 1017.6 hPa
Clouds: Few Clouds
Visibility: 10 miles , 16 km
Cloud details: Few Clouds 20000 ft
2020/04/02 11:56 KSFO 021156Z 26004KT 10SM FEW200 08/04 A3005 RMK AO2 SLP176 T00780039 10106 20078 53006
KE16 - San Martin, California, USA
Distance from station: ESE 27mi, 43km
Updated: 11,14/2019 4:35am
NOT Current
Overcast
Overcast
 Wind from SE
Wind: SE 7 mph , 11 km/h
Temperature: 54°F , 12°C
Dew Point: 50°F , 10°C
Humidity: 88%
Barometer: 30.05 inHg , 1017.6 hPa
Clouds: Overcast
Visibility: 10 miles , 16 km
Cloud details: Overcast 1400 ft
2019/11/14 09:35 KE16 140935Z AUTO 13006KT 10SM OVC014 12/10 A3005 RMK AO2
KWVI - Watsonville, California, USA
Distance from station: SSE 27mi, 44km
Updated: 04,02/2020 7:53am
Clear
Clear
 Wind from N
Wind: N 3 mph , 6 km/h
Temperature: 43°F , 6°C
Dew Point: 37°F , 3°C
Humidity: 81%
Barometer: 30.04 inHg , 1017.3 hPa
Clouds: Clear
Visibility: 10 miles , 16 km
2020/04/02 11:53 KWVI 021153Z AUTO 36003KT 10SM CLR 06/03 A3004 RMK AO2 SLP172 T00560033 10094 20050 50002
 
KHAF - Half Moon Bay, California, USA
Distance from station: WNW 31mi, 50km
Updated: 04,02/2020 8:35am
Clear
Clear
 Wind from N
Wind: N 8 mph , 13 km/h
Temperature: 39°F , 4°C
Wind Chill: 33°F , 1°C
Dew Point: 37°F , 3°C
Humidity: 93%
Barometer: 30.06 inHg , 1017.9 hPa
Clouds: Clear
Visibility: 10 miles , 16 km
2020/04/02 12:35 KHAF 021235Z AUTO 35007KT 10SM CLR 04/03 A3006 RMK AO2
KHWD - Hayward, California, USA
Distance from station: N 28mi, 44km
Updated: 04,02/2020 7:54am
Clear
Clear
 Wind from ENE
Wind: ENE 6 mph , 9 km/h
Temperature: 45°F , 7°C
Wind Chill: 42°F , 6°C
Dew Point: 37°F , 3°C
Humidity: 76%
Barometer: 30.05 inHg , 1017.6 hPa
Clouds: Clear
Visibility: 10 miles , 16 km
2020/04/02 11:54 KHWD 021154Z AUTO 06005KT 10SM CLR 07/03 A3005 RMK AO2 SLP185 T00670028 10111 20061 53004
KLVK - Livermore, California, USA
Distance from station: NNE 31mi, 51km
Updated: 04,02/2020 7:53am
Clear
Clear
 Wind from calm
Wind: Calm
Temperature: 39°F , 4°C
Dew Point: 36°F , 2°C
Humidity: 87%
Barometer: 30.05 inHg , 1017.6 hPa
Clouds: Clear
Visibility: 10 miles , 16 km
2020/04/02 11:53 KLVK 021153Z AUTO 00000KT 10SM CLR 04/02 A3005 RMK AO2 SLP173 T00390017 10083 20033 53005